Lykens, PA (17048)

11:58 AM EDT on August 30, 2015 (GMT -0400)
Gratz, PA | | Change Station
CLOSE
Current Station
Personal Weather Station
Location: Lykens, PA
Elevation: 817 ft
Nearby Weather Stations

Elev 817 ft 40.61 °N, 76.72 °W | Updated 4 seconds ago

Clear
Clear
86.7 °F
Feels Like 89 °F
N
3.1
Wind Variable Wind from North
Gusts 4.5 mph

Today
High -- | Low -- °F
--% Chance of Precip.
Yesterday
High -- | Low -- °F
Precip. -- in
6:31 AM 7:42 PM
Full, 99% visible
Pressure 30.12 in
Visibility 10.0 miles
Clouds Clear
Heat Index 89 °F
Dew Point 66 °F
Humidity 50%
Rainfall 0.00 in
Snow Depth Not available.
UV 7 out of 12
Pollen 10.00 out of 12
Air Quality Not available.
Flu Activity Not available.
METAR KMUI 301458Z AUTO VRB04KT 10SM CLR 25/20 A3012 RMK AO2 DZB1358E1359RAB1359E11 SLP200 P0000 60000 T02510198 50001
Pressure 30.12 in
Visibility 10.0 miles
Clouds Clear
Heat Index 89 °F
Dew Point 66 °F
Humidity 50%
Rainfall 0.00 in
Snow Depth Not available.
UV 7 out of 12
Pollen 10.00 out of 12
Air Quality Not available.
Flu Activity Not available.
METAR KMUI 301458Z AUTO VRB04KT 10SM CLR 25/20 A3012 RMK AO2 DZB1358E1359RAB1359E11 SLP200 P0000 60000 T02510198 50001

10-Day Weather Forecast

×

Almanac

Astronomy

Aug. 30, 2015 Rise Set
Actual Time
Civil Twilight
Nautical Twilight
Astronomical Twilight
Moon
Length of Visible Light
Length of Day
Tomorrow will be .
, % of the Moon is Illuminated

Today's Extremes

State Highs State Lows

Community

WunderPhotos

Upload Photos

1,850,997 photos uploaded!

WunderBlogs® & News

Nearby

Air Quality

  Air Quality AQ Index Pollutant
Not available.

Snow Depth

Station Depth Elevation

Earthquake Activity

City Distance Mag. Time & Date
Minimum magnitude displayed is 2.5.

Coastal Water Temperatures

Place Temperature

Stations

Nearby Weather Stations

Station Location Temp. Windchill Dew Point Humidity Wind Precip. Elev Updated Type